createdAt,value
2023-04-22T00:03:35.928Z,100315.03
2023-04-22T00:06:58.380Z,100309.75
2023-04-22T00:10:23.382Z,100312.41
2023-04-22T00:13:26.025Z,100307.03
2023-04-22T00:16:49.868Z,100304.38
2023-04-22T00:19:56.415Z,100307.03
2023-04-22T00:22:59.938Z,100317.31
2023-04-22T00:26:06.464Z,100305.41
2023-04-22T00:29:09.949Z,100311.97
2023-04-22T00:32:15.088Z,100298.78
2023-04-22T00:35:38.423Z,100304.38
2023-04-22T00:38:49.848Z,100309.31
2023-04-22T00:42:13.922Z,100303.81
2023-04-22T00:45:19.516Z,100303.09
2023-04-22T00:48:45.522Z,100307.44
2023-04-22T00:51:48.876Z,100304.87
2023-04-22T00:55:14.224Z,100309.09
2023-04-22T00:58:20.355Z,100307.63
2023-04-22T01:01:44.252Z,100303.91
2023-04-22T01:05:11.102Z,100309.78
2023-04-22T01:08:35.032Z,100309.06
2023-04-22T01:11:38.751Z,100311.94
2023-04-22T01:14:46.885Z,100309.84
2023-04-22T01:18:10.400Z,100312.41
2023-04-22T01:21:14.899Z,100315.53
2023-04-22T01:24:21.968Z,100315.19
2023-04-22T01:27:36.080Z,100316.38
2023-04-22T01:31:10.734Z,100318.91
2023-04-22T01:34:37.974Z,100318.59
2023-04-22T01:38:02.085Z,100313.31
2023-04-22T01:41:07.753Z,100319.09
2023-04-22T01:44:14.939Z,100313.41
2023-04-22T01:47:21.522Z,100312.28
2023-04-22T01:50:24.697Z,100321.00
2023-04-22T01:54:30.094Z,100320.53
2023-04-22T01:57:36.834Z,100327.06
2023-04-22T02:00:48.307Z,100324.56
2023-04-22T02:04:34.025Z,100321.81
2023-04-22T02:07:37.036Z,100314.38
2023-04-22T02:10:43.216Z,100313.81
2023-04-22T02:14:07.390Z,100318.75
2023-04-22T02:17:48.646Z,100308.19
2023-04-22T02:21:16.246Z,100319.31
2023-04-22T02:24:39.378Z,100317.72
2023-04-22T02:27:46.976Z,100311.78
2023-04-22T02:31:09.892Z,100319.88
2023-04-22T02:34:17.147Z,100312.78
2023-04-22T02:37:22.143Z,100316.59
2023-04-22T02:40:26.083Z,100317.50
2023-04-22T02:43:50.677Z,100314.53
2023-04-22T02:47:39.618Z,100308.81
2023-04-22T02:51:06.953Z,100311.31
2023-04-22T02:54:13.980Z,100309.78
2023-04-22T02:57:17.601Z,100307.97
2023-04-22T03:00:20.859Z,100311.97
2023-04-22T03:03:48.683Z,100316.19
2023-04-22T03:07:13.562Z,100311.72
2023-04-22T03:10:40.818Z,100313.19
2023-04-22T03:14:20.288Z,100323.44
2023-04-22T03:17:32.900Z,100313.06
2023-04-22T03:20:50.636Z,100317.03
2023-04-22T03:24:23.760Z,100320.69
2023-04-22T03:28:00.940Z,100326.97
2023-04-22T03:31:39.311Z,100322.16
2023-04-22T03:35:21.746Z,100326.41
2023-04-22T03:39:06.682Z,100324.81
2023-04-22T03:42:23.554Z,100330.62
2023-04-22T03:45:51.573Z,100324.94
2023-04-22T03:48:58.535Z,100339.69
2023-04-22T03:52:23.010Z,100337.75
2023-04-22T03:56:00.109Z,100333.22
2023-04-22T03:59:41.951Z,100332.84
2023-04-22T04:02:58.850Z,100337.00
2023-04-22T04:06:27.299Z,100334.50
2023-04-22T04:09:45.201Z,100341.91
2023-04-22T04:13:32.450Z,100346.75
2023-04-22T04:17:14.508Z,100340.47
2023-04-22T04:20:32.325Z,100346.88
2023-04-22T04:24:03.990Z,100348.28
2023-04-22T04:27:24.403Z,100350.56
2023-04-22T04:31:08.398Z,100354.94
2023-04-22T04:35:00.170Z,100358.81
2023-04-22T04:38:47.830Z,100367.41
2023-04-22T04:42:08.584Z,100365.25
2023-04-22T04:45:34.304Z,100365.25
2023-04-22T04:49:05.485Z,100373.47
2023-04-22T04:52:27.728Z,100371.25
2023-04-22T04:56:07.328Z,100371.91
2023-04-22T04:59:33.722Z,100375.06
2023-04-22T05:02:57.514Z,100372.25
2023-04-22T05:06:46.791Z,100377.22
2023-04-22T05:10:13.455Z,100385.41
2023-04-22T05:13:56.629Z,100379.97
2023-04-22T05:17:43.846Z,100377.75
2023-04-22T05:21:25.162Z,100377.84
2023-04-22T05:24:50.987Z,100387.47
2023-04-22T05:28:20.917Z,100381.28
2023-04-22T05:31:54.610Z,100374.47
2023-04-22T05:35:22.742Z,100383.53
2023-04-22T05:38:51.493Z,100384.22
2023-04-22T05:42:26.245Z,100378.47
2023-04-22T05:46:01.519Z,100379.28
2023-04-22T05:49:31.798Z,100382.72
2023-04-22T05:52:58.100Z,100389.19
2023-04-22T05:56:23.566Z,100381.34
2023-04-22T05:59:29.683Z,100390.50
2023-04-22T06:03:30.826Z,100388.53
2023-04-22T06:07:06.237Z,100390.06
2023-04-22T06:10:24.294Z,100395.22
2023-04-22T06:13:51.853Z,100386.31
2023-04-22T06:20:54.352Z,100399.72
2023-04-22T06:24:23.253Z,100396.06
2023-04-22T06:27:59.097Z,100405.66
2023-04-22T06:31:34.479Z,100407.78
2023-04-22T06:34:52.629Z,100400.56
2023-04-22T06:42:02.416Z,100398.69
2023-04-22T06:52:46.045Z,100395.00
2023-04-22T06:56:01.044Z,100397.13
2023-04-22T06:59:36.020Z,100394.41
2023-04-22T07:02:58.007Z,100396.56
2023-04-22T07:06:33.527Z,100393.09
2023-04-22T07:10:02.467Z,100402.91
2023-04-22T07:13:43.315Z,100402.34
2023-04-22T07:17:24.882Z,100395.31
2023-04-22T07:20:56.038Z,100398.75
2023-04-22T07:24:30.570Z,100395.44
2023-04-22T07:27:55.119Z,100395.53
2023-04-22T07:31:27.469Z,100396.56
2023-04-22T07:35:03.058Z,100390.91
2023-04-22T07:38:36.854Z,100401.62
2023-04-22T07:42:10.703Z,100395.50
2023-04-22T07:45:38.438Z,100393.69
2023-04-22T07:49:14.453Z,100396.59
2023-04-22T07:52:44.624Z,100393.03
2023-04-22T07:56:03.600Z,100397.78
2023-04-22T07:59:40.693Z,100390.91
2023-04-22T08:03:12.309Z,100388.56
2023-04-22T08:10:54.082Z,100389.97
2023-04-22T08:14:41.939Z,100381.34
2023-04-22T08:18:08.975Z,100379.44
2023-04-22T08:21:14.861Z,100380.91
2023-04-22T08:24:17.499Z,100385.87
2023-04-22T08:27:38.389Z,100377.91
2023-04-22T08:31:22.014Z,100384.38
2023-04-22T08:35:05.418Z,100387.47
2023-04-22T08:38:08.358Z,100382.72
2023-04-22T08:41:52.736Z,100382.94
2023-04-22T08:45:33.664Z,100377.88
2023-04-22T08:49:03.729Z,100384.88
2023-04-22T08:52:13.170Z,100386.16
2023-04-22T08:55:50.002Z,100388.06
2023-04-22T08:58:55.000Z,100372.59
2023-04-22T09:02:03.729Z,100376.78
2023-04-22T09:05:41.381Z,100372.16
2023-04-22T09:09:24.960Z,100364.69
2023-04-22T09:12:49.825Z,100372.09
2023-04-22T09:16:25.469Z,100387.19
2023-04-22T09:20:03.895Z,100367.66
2023-04-22T09:28:20.405Z,100384.31
2023-04-22T09:31:48.774Z,100373.00
2023-04-22T09:35:13.525Z,100372.81
2023-04-22T09:38:21.968Z,100376.16
2023-04-22T09:41:54.546Z,100370.94
2023-04-22T09:45:02.209Z,100369.59
2023-04-22T09:52:29.914Z,100354.88
2023-04-22T10:00:17.613Z,100354.44
2023-04-22T10:03:21.479Z,100338.66
2023-04-22T10:06:33.983Z,100337.66
2023-04-22T10:09:39.091Z,100343.84
2023-04-22T10:12:45.725Z,100342.34
2023-04-22T10:15:54.944Z,100328.37
2023-04-22T10:19:22.338Z,100327.50
2023-04-22T10:22:28.064Z,100321.44
2023-04-22T10:25:31.761Z,100330.38
2023-04-22T10:28:44.705Z,100317.34
2023-04-22T10:32:29.136Z,100323.50
2023-04-22T10:36:16.700Z,100316.69
2023-04-22T10:39:22.385Z,100311.09
2023-04-22T10:43:07.103Z,100307.09
2023-04-22T10:46:58.482Z,100317.31
2023-04-22T10:50:33.670Z,100307.50
2023-04-22T10:54:04.245Z,100306.06
2023-04-22T10:57:23.071Z,100315.72
2023-04-22T11:00:45.749Z,100308.41
2023-04-22T11:04:23.598Z,100302.81
2023-04-22T11:07:27.104Z,100305.22
2023-04-22T11:10:45.252Z,100304.13
2023-04-22T11:14:09.219Z,100307.94
2023-04-22T11:17:34.398Z,100294.91
2023-04-22T11:20:37.855Z,100295.13
2023-04-22T11:23:53.234Z,100295.00
2023-04-22T11:26:57.584Z,100296.53
2023-04-22T11:30:04.876Z,100287.59
2023-04-22T11:33:16.339Z,100298.28
2023-04-22T11:36:45.974Z,100289.25
2023-04-22T11:40:16.887Z,100281.78
2023-04-22T11:43:29.512Z,100290.03
2023-04-22T11:46:39.530Z,100287.50
2023-04-22T11:50:09.394Z,100289.13
2023-04-22T11:53:20.028Z,100285.03
2023-04-22T11:56:37.719Z,100285.56
2023-04-22T11:59:42.570Z,100281.44
2023-04-22T12:02:57.169Z,100279.47
2023-04-22T12:06:02.310Z,100283.12
2023-04-22T12:09:14.100Z,100275.09
2023-04-22T12:12:23.917Z,100279.53
2023-04-22T12:15:27.085Z,100279.00
2023-04-22T12:18:54.365Z,100276.06
2023-04-22T12:25:35.579Z,100270.84
2023-04-22T12:28:39.243Z,100271.13
2023-04-22T12:31:42.924Z,100267.44
2023-04-22T12:34:48.547Z,100277.75
2023-04-22T12:37:52.826Z,100272.47
2023-04-22T12:40:57.293Z,100271.34
2023-04-22T12:44:01.098Z,100273.63
2023-04-22T12:47:05.103Z,100262.50
2023-04-22T12:50:43.307Z,100262.84
2023-04-22T12:53:52.502Z,100264.34
2023-04-22T12:56:55.484Z,100256.34
2023-04-22T12:59:59.176Z,100255.41
2023-04-22T13:03:10.622Z,100266.78
2023-04-22T13:06:14.462Z,100256.53
2023-04-22T13:09:39.057Z,100250.97
2023-04-22T13:13:47.035Z,100239.53
2023-04-22T13:17:12.239Z,100237.34
2023-04-22T13:20:35.364Z,100225.16
2023-04-22T13:24:04.799Z,100234.50
2023-04-22T13:27:53.340Z,100236.69
2023-04-22T13:30:58.525Z,100238.41
2023-04-22T13:34:26.539Z,100238.09
2023-04-22T13:37:38.984Z,100230.97
2023-04-22T13:41:05.535Z,100223.34
2023-04-22T13:44:18.298Z,100230.56
2023-04-22T13:47:25.587Z,100225.06
2023-04-22T13:50:34.527Z,100219.00
2023-04-22T13:53:42.463Z,100222.34
2023-04-22T13:57:18.481Z,100224.59
2023-04-22T14:00:24.626Z,100216.31
2023-04-22T14:03:32.421Z,100216.56
2023-04-22T14:06:55.788Z,100212.34
2023-04-22T14:14:01.756Z,100215.34
2023-04-22T14:21:39.614Z,100214.00
2023-04-22T14:24:49.573Z,100209.66
2023-04-22T14:28:13.876Z,100216.47
2023-04-22T14:32:00.200Z,100219.44
2023-04-22T14:35:53.906Z,100206.50
2023-04-22T14:43:49.517Z,100207.41
2023-04-22T14:46:54.939Z,100201.72
2023-04-22T14:50:43.560Z,100206.13
2023-04-22T14:54:51.732Z,100200.31
2023-04-22T15:02:50.247Z,100200.19
2023-04-22T15:06:14.606Z,100200.19
2023-04-22T15:10:05.693Z,100200.34
2023-04-22T15:13:55.552Z,100211.97
2023-04-22T15:18:10.045Z,100206.69
2023-04-22T15:21:40.533Z,100207.81
2023-04-22T15:24:48.524Z,100195.09
2023-04-22T15:28:42.733Z,100194.81
2023-04-22T15:32:46.677Z,100202.56
2023-04-22T15:36:11.265Z,100195.09
2023-04-22T15:39:47.792Z,100197.28
2023-04-22T15:43:55.046Z,100201.94
2023-04-22T15:47:34.968Z,100197.50
2023-04-22T15:55:02.202Z,100203.34
2023-04-22T15:58:25.247Z,100196.25
2023-04-22T16:02:01.454Z,100197.44
2023-04-22T16:05:52.379Z,100193.09
2023-04-22T16:09:53.285Z,100201.09
2023-04-22T16:13:19.284Z,100186.47
2023-04-22T16:16:56.142Z,100188.38
2023-04-22T16:20:43.042Z,100188.06
2023-04-22T16:24:08.069Z,100188.34
2023-04-22T16:27:50.078Z,100180.44
2023-04-22T16:32:03.764Z,100191.41
2023-04-22T16:35:33.081Z,100182.81
2023-04-22T16:43:15.477Z,100185.22
2023-04-22T16:47:07.294Z,100182.38
2023-04-22T16:50:33.413Z,100176.66
2023-04-22T16:54:16.486Z,100176.94
2023-04-22T16:58:04.863Z,100174.72
2023-04-22T17:05:48.016Z,100176.75
2023-04-22T17:21:02.850Z,100179.06
2023-04-22T17:28:35.452Z,100177.44
2023-04-22T17:32:45.520Z,100178.06
2023-04-22T17:37:24.030Z,100176.28
2023-04-22T17:41:01.086Z,100182.41
2023-04-22T17:50:15.118Z,100194.09
2023-04-22T17:58:08.089Z,100196.94
2023-04-22T18:01:59.660Z,100197.31
2023-04-22T18:05:50.628Z,100201.66
2023-04-22T18:09:22.417Z,100211.31
2023-04-22T18:13:17.819Z,100207.53
2023-04-22T18:16:50.995Z,100216.81
2023-04-22T18:21:07.746Z,100224.72
2023-04-22T18:24:49.936Z,100228.53
2023-04-22T18:28:36.919Z,100233.19
2023-04-22T18:32:21.496Z,100239.22
2023-04-22T18:43:56.986Z,100242.22
2023-04-22T18:47:09.635Z,100246.28
2023-04-22T18:51:02.306Z,100249.81
2023-04-22T18:58:23.884Z,100255.03
2023-04-22T19:06:15.390Z,100262.06
2023-04-22T19:09:39.469Z,100248.56
2023-04-22T19:13:29.128Z,100255.75
2023-04-22T19:17:05.257Z,100258.94
2023-04-22T19:20:11.339Z,100262.16
2023-04-22T19:32:00.807Z,100263.72
2023-04-22T19:40:27.149Z,100257.87
2023-04-22T19:52:18.262Z,100257.00
2023-04-22T20:18:51.027Z,100263.56
2023-04-22T20:22:21.167Z,100263.81
2023-04-22T20:25:48.183Z,100264.59
2023-04-22T20:29:24.492Z,100268.00
2023-04-22T20:33:33.681Z,100269.75
2023-04-22T20:36:40.297Z,100266.78
2023-04-22T20:40:06.769Z,100263.78
2023-04-22T20:52:14.204Z,100257.03
2023-04-22T20:55:19.700Z,100251.66
2023-04-22T20:58:22.772Z,100257.47
2023-04-22T21:01:30.409Z,100247.69
2023-04-22T21:04:37.249Z,100250.28
2023-04-22T21:07:43.509Z,100248.34
2023-04-22T21:10:48.730Z,100255.44
2023-04-22T21:13:54.419Z,100252.97
2023-04-22T21:17:13.502Z,100254.47
2023-04-22T21:20:19.708Z,100251.22
2023-04-22T21:23:43.768Z,100259.16
2023-04-22T21:26:49.929Z,100256.44
2023-04-22T21:29:55.158Z,100263.72
2023-04-22T21:34:59.486Z,100267.34
2023-04-22T21:38:06.442Z,100267.34
2023-04-22T21:41:09.394Z,100272.75
2023-04-22T21:44:12.602Z,100272.94
2023-04-22T21:47:15.594Z,100266.78
2023-04-22T21:50:20.791Z,100278.59
2023-04-22T21:53:26.443Z,100269.62
2023-04-22T21:56:57.405Z,100280.87
2023-04-22T22:00:10.335Z,100285.09
2023-04-22T22:03:16.013Z,100269.66
2023-04-22T22:06:19.496Z,100280.72
2023-04-22T22:09:43.970Z,100279.28
2023-04-22T22:12:50.068Z,100288.56
2023-04-22T22:16:16.004Z,100280.59
2023-04-22T22:19:22.946Z,100285.69
2023-04-22T22:22:29.849Z,100287.31
2023-04-22T22:25:45.885Z,100286.53
2023-04-22T22:28:51.251Z,100282.19
2023-04-22T22:31:56.367Z,100297.97
2023-04-22T22:35:01.711Z,100291.00
2023-04-22T22:38:24.292Z,100295.16
2023-04-22T22:41:34.158Z,100300.59
2023-04-22T22:44:58.003Z,100295.31
2023-04-22T22:48:03.605Z,100292.06
2023-04-22T22:51:45.419Z,100295.09
2023-04-22T22:55:17.334Z,100295.81
2023-04-22T22:58:41.488Z,100292.91
2023-04-22T23:01:45.203Z,100301.41
2023-04-22T23:05:33.573Z,100296.59
2023-04-22T23:08:38.986Z,100299.41
2023-04-22T23:11:48.453Z,100297.13
2023-04-22T23:14:57.246Z,100298.63
2023-04-22T23:18:00.293Z,100304.09
2023-04-22T23:21:51.932Z,100302.63
2023-04-22T23:24:55.073Z,100299.06
2023-04-22T23:27:59.843Z,100297.13
2023-04-22T23:31:06.882Z,100293.34
2023-04-22T23:34:51.574Z,100298.94
2023-04-22T23:37:57.039Z,100297.59
2023-04-22T23:41:20.881Z,100295.66
2023-04-22T23:44:24.958Z,100296.84
2023-04-22T23:47:28.981Z,100293.53
2023-04-22T23:50:32.125Z,100289.06
2023-04-22T23:53:39.549Z,100286.12
2023-04-22T23:56:51.827Z,100290.50
2023-04-22T23:59:57.663Z,100293.81
